Time;durP1;ratioP1;P1;durP2;ratioP2;P2;SDS_P1;SDS_P2;PMS_P1;PMS_P2;Temp;Humidity;BMP_temperature;BMP_pressure;BME280_temperature;BME280_humidity;BME280_pressure;Samples;Min_cycle;Max_cycle;Signal;HPM_P1;HPM_P2
2022/06/26 00:00:59;;;;;;;;;1.00;1.00;;;;;16.05;68.00;101030.13;6307062;22;45327;-90
2022/06/26 00:03:25;;;;;;;;;1.00;1.00;;;;;16.03;67.74;101031.97;6306080;22;45328;-91
2022/06/26 00:05:58;;;;;;;;;1.50;0.50;;;;;16.00;67.78;101030.31;6305843;22;45330;-92
2022/06/26 00:08:28;;;;;;;;;3.00;1.75;;;;;15.98;67.77;101042.66;6305613;22;45298;-92
2022/06/26 00:11:04;;;;;;;;;;;;;;;;;;;;;
2022/06/26 00:13:44;;;;;;;;;;;;;;;;;;;;;
2022/06/26 00:16:25;;;;;;;;;;;;;;;;;;;;;
2022/06/26 00:18:56;;;;;;;;;1.00;1.00;;;;;16.00;67.65;101038.19;6306817;22;70286;-91
2022/06/26 00:21:22;;;;;;;;;2.00;1.75;;;;;16.01;67.25;101044.28;6309263;22;45483;-91
2022/06/26 00:23:49;;;;;;;;;3.00;1.50;;;;;15.99;67.49;101043.50;6307365;22;45419;-91
2022/06/26 00:26:38;;;;;;;;;2.00;2.00;;;;;15.99;67.42;101044.38;6310997;22;45409;-92
2022/06/26 00:29:14;;;;;;;;;;;;;;;;;;;;;
2022/06/26 00:31:51;;;;;;;;;;;;;;;;;;;;;
2022/06/26 00:34:47;;;;;;;;;;;;;;;;;;;;;
2022/06/26 00:37:13;;;;;;;;;4.75;2.00;;;;;15.93;67.62;101033.31;6251711;22;68920;-90
2022/06/26 00:39:42;;;;;;;;;1.00;1.00;;;;;15.93;67.59;101047.28;6248593;22;45394;-90
2022/06/26 00:42:17;;;;;;;;;1.50;1.00;;;;;15.91;68.03;101041.25;6222870;22;47249;-89
2022/06/26 00:44:44;;;;;;;;;4.00;2.00;;;;;15.92;68.05;101036.88;6249216;22;45776;-91
2022/06/26 00:47:13;;;;;;;;;1.00;1.00;;;;;15.87;67.70;101032.66;6276251;22;45246;-90
2022/06/26 00:49:48;;;;;;;;;;;;;;;;;;;;;
2022/06/26 00:52:18;;;;;;;;;2.00;1.00;;;;;15.85;67.70;101025.78;6274316;22;75723;-91
2022/06/26 00:54:44;;;;;;;;;2.50;0.75;;;;;15.83;67.64;101035.50;6275051;22;45330;-91
2022/06/26 00:57:09;;;;;;;;;2.00;1.25;;;;;15.81;68.07;101040.00;6222591;22;45496;-92
2022/06/26 00:59:44;;;;;;;;;2.00;2.00;;;;;15.77;68.12;101043.69;6250394;22;45292;-91
2022/06/26 01:02:12;;;;;;;;;2.00;1.75;;;;;15.73;67.90;101048.19;6250950;22;45314;-90
2022/06/26 01:04:40;;;;;;;;;2.00;1.00;;;;;15.71;67.84;101046.53;6281925;22;45594;-91
2022/06/26 01:07:08;;;;;;;;;2.00;2.00;;;;;15.68;68.45;101052.78;6306002;22;45265;-91
2022/06/26 01:09:34;;;;;;;;;2.50;1.25;;;;;15.64;68.71;101044.19;6307356;22;45328;-91
2022/06/26 01:12:09;;;;;;;;;2.00;1.00;;;;;15.61;68.27;101035.59;6306040;22;46984;-91
2022/06/26 01:14:35;;;;;;;;;1.50;1.00;;;;;15.57;68.76;101042.75;6305521;22;45273;-91
2022/06/26 01:17:10;;;;;;;;;3.00;1.00;;;;;15.55;68.34;101054.25;6306379;22;45222;-91
2022/06/26 01:19:38;;;;;;;;;1.25;1.25;;;;;15.56;68.34;101063.81;6307951;22;45391;-91
2022/06/26 01:22:04;;;;;;;;;3.75;2.00;;;;;15.53;68.90;101069.22;6307741;22;45916;-90
2022/06/26 01:24:48;;;;;;;;;2.25;2.00;;;;;15.53;68.65;101062.19;6307143;22;45221;-91
2022/06/26 01:27:16;;;;;;;;;4.00;1.75;;;;;15.53;68.71;101061.34;6283583;22;45377;-91
2022/06/26 01:29:51;;;;;;;;;2.50;1.00;;;;;15.50;68.83;101057.06;6279661;22;45302;-91
2022/06/26 01:32:19;;;;;;;;;1.00;1.00;;;;;15.46;68.64;101058.97;6332509;22;47043;-91
2022/06/26 01:34:47;;;;;;;;;4.75;3.00;;;;;15.45;69.07;101059.91;6305131;22;45313;-91
2022/06/26 01:37:20;;;;;;;;;2.25;2.00;;;;;15.48;68.97;101061.53;6305453;22;45338;-92
2022/06/26 01:39:54;;;;;;;;;2.25;1.50;;;;;15.44;68.69;101071.31;6307363;22;45308;-92
2022/06/26 01:42:34;;;;;;;;;2.75;2.00;;;;;15.44;68.65;101070.47;6306555;22;47152;-92
2022/06/26 01:45:05;;;;;;;;;3.25;2.25;;;;;15.46;68.80;101079.13;6305888;22;45350;-91
2022/06/26 01:47:40;;;;;;;;;1.50;1.00;;;;;15.45;68.81;101073.03;6305962;22;45415;-91
2022/06/26 01:50:13;;;;;;;;;3.50;2.00;;;;;15.47;68.56;101086.06;6306312;22;45213;-92
2022/06/26 01:53:12;;;;;;;;;3.00;1.75;;;;;15.45;68.46;101070.41;6330914;22;47142;-90
2022/06/26 01:55:40;;;;;;;;;3.25;2.00;;;;;15.44;68.25;101080.97;6304642;22;45522;-91
2022/06/26 01:58:33;;;;;;;;;2.00;1.50;;;;;15.41;68.84;101083.72;6304797;22;45281;-91
2022/06/26 02:01:11;;;;;;;;;;;;;;;;;;;;;
2022/06/26 02:03:39;;;;;;;;;2.50;1.75;;;;;15.42;68.81;101083.66;6303205;22;74624;-91
2022/06/26 02:06:17;;;;;;;;;5.00;2.50;;;;;15.37;68.99;101077.75;6278458;22;45605;-91
2022/06/26 02:08:52;;;;;;;;;3.00;1.50;;;;;15.35;68.94;101074.34;6281500;22;45427;-92
2022/06/26 02:14:51;;;;;;;;;;;;;;;;;;;;;
2022/06/26 02:17:26;;;;;;;;;5.00;2.00;;;;;15.46;68.92;101079.13;6305000;22;72141;-91
2022/06/26 02:20:04;;;;;;;;;1.25;1.00;;;;;15.48;68.68;101079.91;6279719;22;45283;-92
2022/06/26 02:22:43;;;;;;;;;;;;;;;;;;;;;
2022/06/26 02:25:13;;;;;;;;;2.00;1.25;;;;;15.47;68.70;101086.06;6299608;22;76342;-91
2022/06/26 02:27:48;;;;;;;;;3.00;1.50;;;;;15.49;68.81;101098.22;6304509;22;45659;-92
2022/06/26 02:30:16;;;;;;;;;2.00;2.00;;;;;15.51;68.34;101098.16;6279059;22;45245;-92
2022/06/26 02:32:56;;;;;;;;;;;;;;;;;;;;;
2022/06/26 02:35:23;;;;;;;;;2.00;2.00;;;;;15.54;68.01;101091.91;6297226;22;76260;-91
2022/06/26 02:38:01;;;;;;;;;;;;;;;;;;;;;
2022/06/26 02:40:30;;;;;;;;;2.00;1.75;;;;;15.64;67.79;101087.97;6301855;22;70123;-93
2022/06/26 02:42:56;;;;;;;;;4.25;1.00;;;;;15.69;67.80;101080.72;6305279;22;45413;-91
2022/06/26 02:45:24;;;;;;;;;2.00;2.00;;;;;15.72;67.90;101077.97;6303979;22;46200;-92
2022/06/26 02:48:22;;;;;;;;;;;;;;;;;;;;;
2022/06/26 02:51:19;;;;;;;;;;;;;;;;;;;;;
2022/06/26 02:53:54;;;;;;;;;;;;;;;;;;;;;
2022/06/26 02:56:30;;;;;;;;;;;;;;;;;;;;;
2022/06/26 02:59:05;;;;;;;;;2.50;2.00;;;;;15.93;67.59;101094.53;6299400;22;74096;-91
2022/06/26 03:01:41;;;;;;;;;2.00;1.25;;;;;15.96;67.29;101096.19;6304792;22;45289;-92
2022/06/26 03:04:24;;;;;;;;;2.75;1.50;;;;;15.96;67.73;101097.03;6305800;22;45273;-92
2022/06/26 03:07:01;;;;;;;;;3.00;2.00;;;;;15.94;67.21;101101.50;6305704;22;45660;-92
2022/06/26 03:09:36;;;;;;;;;1.00;1.00;;;;;15.88;67.02;101101.78;6280719;22;45243;-93
2022/06/26 03:12:25;;;;;;;;;3.50;2.00;;;;;15.81;67.38;101101.19;6305769;22;45221;-92
2022/06/26 03:15:09;;;;;;;;;;;;;;;;;;;;;
2022/06/26 03:18:02;;;;;;;;;;;;;;;;;;;;;
2022/06/26 03:20:32;;;;;;;;;4.50;2.00;;;;;15.83;67.38;101093.25;6303817;22;73095;-92
2022/06/26 03:23:10;;;;;;;;;3.00;2.00;;;;;15.85;67.17;101104.53;6305940;22;45217;-92
2022/06/26 03:26:14;;;;;;;;;4.00;2.25;;;;;15.83;67.01;101107.22;6304328;22;45456;-93
2022/06/26 03:32:24;;;;;;;;;;;;;;;;;;;;;
2022/06/26 03:35:28;;;;;;;;;3.50;2.25;;;;;15.76;66.86;101116.28;6298831;22;69217;-92
2022/06/26 03:37:53;;;;;;;;;1.75;1.75;;;;;15.73;67.02;101113.78;6280046;22;45406;-93
2022/06/26 03:40:18;;;;;;;;;2.75;2.75;;;;;15.74;66.77;101119.91;6329996;22;46980;-94
2022/06/26 03:42:54;;;;;;;;;;;;;;;;;;;;;
2022/06/26 03:45:29;;;;;;;;;;;;;;;;;;;;;
2022/06/26 03:48:05;;;;;;;;;4.00;2.00;;;;;15.86;66.86;101114.09;6296722;22;71203;-91
2022/06/26 03:50:41;;;;;;;;;;;;;;;;;;;;;
2022/06/26 03:53:09;;;;;;;;;3.00;2.75;;;;;15.86;66.27;101121.97;6298769;22;74007;-92
2022/06/26 03:55:34;;;;;;;;;2.00;1.75;;;;;15.94;67.38;101113.78;6303994;22;45258;-92
2022/06/26 03:58:01;;;;;;;;;3.00;2.00;;;;;16.00;66.35;101114.34;6304085;22;45489;-92
2022/06/26 04:00:37;;;;;;;;;;;;;;;;;;;;;
2022/06/26 04:03:12;;;;;;;;;3.00;1.75;;;;;16.06;66.01;101114.06;6296319;22;73990;-92
2022/06/26 04:05:40;;;;;;;;;1.75;1.25;;;;;16.08;66.35;101123.66;6304199;22;45400;-93
2022/06/26 04:08:11;;;;;;;;;2.50;2.00;;;;;16.06;66.42;101124.59;6303900;22;45482;-91
2022/06/26 04:10:37;;;;;;;;;3.00;3.00;;;;;16.06;65.56;101129.84;6330182;22;47323;-92
2022/06/26 04:13:30;;;;;;;;;4.00;3.00;;;;;16.11;65.25;101131.41;6305108;22;45302;-91
2022/06/26 04:16:06;;;;;;;;;;;;;;;;;;;;;
2022/06/26 04:18:52;;;;;;;;;;;;;;;;;;;;;
2022/06/26 04:21:25;;;;;;;;;2.25;1.25;;;;;16.01;65.17;101146.69;6296352;22;76679;-93
2022/06/26 04:23:55;;;;;;;;;2.25;1.75;;;;;16.00;65.21;101153.72;6303970;22;45237;-92
2022/06/26 04:26:33;;;;;;;;;;;;;;;;;;;;;
2022/06/26 04:29:08;;;;;;;;;3.00;1.25;;;;;16.01;65.34;101157.19;6299106;22;71197;-92
2022/06/26 04:31:47;;;;;;;;;;;;;;;;;;;;;
2022/06/26 04:34:13;;;;;;;;;2.50;2.50;;;;;15.92;64.52;101168.97;6302870;22;71359;-92
2022/06/26 04:36:38;;;;;;;;;4.50;2.75;;;;;15.86;64.74;101166.59;6277410;22;45231;-92
2022/06/26 04:39:04;;;;;;;;;3.00;2.00;;;;;15.86;64.91;101164.84;6304797;22;45393;-91
2022/06/26 04:41:36;;;;;;;;;3.75;2.00;;;;;15.86;64.68;101170.09;6303336;22;46152;-92
2022/06/26 04:44:06;;;;;;;;;2.00;2.00;;;;;15.87;64.98;101173.56;6303197;22;45372;-92
2022/06/26 04:46:35;;;;;;;;;2.00;1.00;;;;;15.90;64.65;101170.81;6303571;22;45248;-93
2022/06/26 04:49:03;;;;;;;;;1.50;1.25;;;;;15.96;64.71;101164.44;6305901;22;45321;-92
2022/06/26 04:51:31;;;;;;;;;2.00;2.00;;;;;16.05;64.41;101170.13;6306165;22;46166;-92
2022/06/26 04:53:57;;;;;;;;;3.00;3.00;;;;;16.09;63.74;101176.09;6305439;22;45786;-92
2022/06/26 04:56:22;;;;;;;;;4.00;1.25;;;;;16.08;63.82;101177.00;6306559;22;45308;-92
2022/06/26 04:58:55;;;;;;;;;3.00;2.00;;;;;16.10;64.17;101190.06;6304772;22;45417;-92
2022/06/26 05:01:28;;;;;;;;;5.25;3.00;;;;;16.09;63.87;101181.34;6304791;22;46269;-91
2022/06/26 05:03:56;;;;;;;;;4.00;2.25;;;;;16.07;63.40;101188.44;6304795;22;45308;-93
2022/06/26 05:06:22;;;;;;;;;5.00;3.00;;;;;16.10;63.79;101184.81;6305135;22;45280;-90
2022/06/26 05:08:50;;;;;;;;;2.00;2.00;;;;;16.19;63.96;101187.88;6305209;22;45296;-92
2022/06/26 05:11:19;;;;;;;;;2.00;2.00;;;;;16.26;63.84;101186.69;6304907;22;45403;-93
2022/06/26 05:13:54;;;;;;;;;;;;;;;;;;;;;
2022/06/26 05:16:20;;;;;;;;;3.25;3.00;;;;;16.43;63.96;101191.16;6299368;22;68647;-92
2022/06/26 05:18:45;;;;;;;;;2.00;2.00;;;;;16.51;63.51;101200.47;6305305;22;45455;-93
2022/06/26 05:21:11;;;;;;;;;2.75;2.00;;;;;16.56;63.51;101196.69;6306084;22;46413;-92
2022/06/26 05:23:36;;;;;;;;;2.00;2.00;;;;;16.62;63.09;101203.44;6304821;22;45230;-92
2022/06/26 05:26:02;;;;;;;;;2.25;2.00;;;;;16.72;63.02;101201.25;6304999;22;45244;-93
2022/06/26 05:28:27;;;;;;;;;4.75;1.00;;;;;16.79;63.21;101202.63;6304390;22;45227;-92
2022/06/26 05:30:55;;;;;;;;;2.00;1.50;;;;;16.88;62.86;101196.13;6304849;22;47889;-93
2022/06/26 05:33:21;;;;;;;;;2.25;2.00;;;;;16.97;62.29;101196.53;6305666;22;45606;-93
2022/06/26 05:35:46;;;;;;;;;1.25;1.25;;;;;17.04;61.97;101186.59;6306654;22;45237;-92
2022/06/26 05:38:19;;;;;;;;;1.25;1.25;;;;;17.12;61.59;101199.34;6305211;22;45510;-92
2022/06/26 05:40:44;;;;;;;;;3.25;2.75;;;;;17.18;61.04;101199.06;6280204;22;48048;-93
2022/06/26 05:43:09;;;;;;;;;3.00;2.00;;;;;17.23;61.45;101199.66;6278516;22;45315;-92
2022/06/26 05:45:35;;;;;;;;;2.50;0.25;;;;;17.29;61.45;101198.50;6279032;22;45366;-92
2022/06/26 05:48:01;;;;;;;;;3.75;1.50;;;;;17.32;60.73;101208.91;6305056;22;45424;-92
2022/06/26 05:50:29;;;;;;;;;2.00;2.00;;;;;17.33;60.13;101210.63;6305849;22;46322;-91
2022/06/26 05:53:00;;;;;;;;;2.75;1.00;;;;;17.36;60.84;101206.03;6278822;22;45310;-91
2022/06/26 05:55:26;;;;;;;;;4.25;1.75;;;;;17.35;60.20;101191.19;6305208;22;45335;-91
2022/06/26 05:57:51;;;;;;;;;1.00;1.00;;;;;17.38;59.88;101192.78;6304656;22;45285;-91
2022/06/26 06:00:21;;;;;;;;;2.00;2.00;;;;;17.36;59.02;101203.38;6304585;22;46971;-91
2022/06/26 06:02:47;;;;;;;;;3.00;1.00;;;;;17.33;59.14;101205.34;6306032;22;45339;-90
2022/06/26 06:05:17;;;;;;;;;4.75;2.00;;;;;17.34;59.54;101205.25;6305192;22;45284;-91
2022/06/26 06:07:52;;;;;;;;;1.00;1.00;;;;;17.35;59.59;101208.75;6280082;22;45402;-91
2022/06/26 06:10:20;;;;;;;;;4.50;1.00;;;;;17.36;58.31;101213.91;6305783;22;45343;-91
2022/06/26 06:12:55;;;;;;;;;3.00;1.75;;;;;17.39;59.30;101213.78;6304865;22;45305;-91
2022/06/26 06:15:21;;;;;;;;;1.50;1.50;;;;;17.49;58.90;101219.41;6331311;22;45452;-92
2022/06/26 06:17:49;;;;;;;;;1.00;1.00;;;;;17.63;58.15;101224.00;6278708;22;45302;-92
2022/06/26 06:20:18;;;;;;;;;1.00;1.00;;;;;17.75;58.52;101230.41;6304581;22;46217;-91
2022/06/26 06:22:51;;;;;;;;;3.50;2.00;;;;;17.82;57.91;101230.97;6304585;22;45297;-92
2022/06/26 06:25:16;;;;;;;;;1.00;1.00;;;;;17.83;58.08;101233.53;6305610;22;45324;-92
2022/06/26 06:27:41;;;;;;;;;3.00;1.50;;;;;17.78;57.53;101232.91;6306503;22;45446;-92
2022/06/26 06:30:09;;;;;;;;;1.25;1.00;;;;;17.76;58.03;101237.41;6280026;22;48026;-92
2022/06/26 06:32:35;;;;;;;;;4.00;2.75;;;;;17.72;58.23;101228.81;6306219;22;45311;-92
2022/06/26 06:35:04;;;;;;;;;2.25;2.00;;;;;17.70;58.26;101233.28;6305341;22;45629;-92
2022/06/26 06:37:32;;;;;;;;;4.00;1.00;;;;;17.69;57.95;101238.63;6305311;22;44702;-93
2022/06/26 06:39:57;;;;;;;;;1.75;1.75;;;;;17.74;58.44;101234.00;6304370;22;45533;-92
2022/06/26 06:42:25;;;;;;;;;2.00;1.00;;;;;17.87;58.38;101247.41;6304768;22;45262;-92
2022/06/26 06:44:50;;;;;;;;;4.00;1.75;;;;;18.04;58.80;101241.28;6279151;22;45257;-92
2022/06/26 06:47:18;;;;;;;;;4.00;1.00;;;;;18.15;57.68;101242.41;6305174;22;45419;-92
2022/06/26 06:49:44;;;;;;;;;3.25;1.25;;;;;18.22;57.41;101248.22;6305118;22;47086;-92
2022/06/26 06:52:09;;;;;;;;;2.00;2.00;;;;;18.23;57.02;101247.25;6305709;22;45238;-92
2022/06/26 06:54:44;;;;;;;;;3.00;1.75;;;;;18.29;57.80;101246.09;6280318;22;45277;-93
2022/06/26 06:57:12;;;;;;;;;1.25;1.25;;;;;18.39;57.71;101249.94;6332424;22;45169;-92
2022/06/26 06:59:40;;;;;;;;;1.00;1.00;;;;;18.47;56.01;101253.00;6307069;22;45300;-93
2022/06/26 07:02:26;;;;;;;;;3.00;1.75;;;;;18.46;56.50;101248.69;6306802;22;45224;-92
2022/06/26 07:04:51;;;;;;;;;0.50;0.25;;;;;18.46;56.98;101247.81;6304843;22;45355;-94
2022/06/26 07:07:34;;;;;;;;;4.25;2.00;;;;;18.49;56.93;101242.38;6307080;22;45483;-94
2022/06/26 07:10:19;;;;;;;;;2.75;1.00;;;;;18.64;56.61;101254.72;6305827;22;46385;-93
2022/06/26 07:16:03;;;;;;;;;;;;;;;;;;;;;
2022/06/26 07:18:41;;;;;;;;;2.50;2.00;;;;;18.54;55.74;101267.56;6299357;22;70996;-93
2022/06/26 07:21:09;;;;;;;;;3.00;2.00;;;;;18.59;55.55;101269.97;6306353;22;47467;-93
2022/06/26 07:24:12;;;;;;;;;;;;;;;;;;;;;
2022/06/26 07:26:54;;;;;;;;;3.00;1.00;;;;;18.68;53.24;101276.50;6307922;22;68098;-94
2022/06/26 07:36:27;;;;;;;;;2.75;1.00;;;;;19.20;53.07;101297.38;6178673;23;45847;-93
2022/06/26 07:38:57;;;;;;;;;1.25;1.25;;;;;19.33;52.90;101295.78;6131387;23;45269;-92
2022/06/26 07:45:19;;;;;;;;;1.00;1.00;;;;;19.42;51.27;101310.22;6166430;23;46828;-94
2022/06/26 07:48:05;;;;;;;;;;;;;;;;;;;;;
2022/06/26 07:53:31;;;;;;;;;1.00;1.00;;;;;19.36;48.51;101317.66;6165102;23;45479;-96
2022/06/26 07:56:25;;;;;;;;;0.25;0.25;;;;;19.28;49.18;101310.19;6180825;22;46522;-95
2022/06/26 07:58:52;;;;;;;;;1.00;1.00;;;;;19.30;48.49;101308.31;6181742;23;44948;-94
2022/06/26 08:01:26;;;;;;;;;2.00;1.75;;;;;19.35;50.46;101303.59;6183872;23;45367;-94
2022/06/26 08:04:06;;;;;;;;;1.00;1.00;;;;;19.46;49.50;101300.34;6160087;23;45225;-96
2022/06/26 08:07:45;;;;;;;;;;;;;;;;;;;;;
2022/06/26 08:11:05;;;;;;;;;;;;;;;;;;;;;
2022/06/26 08:13:23;;;;;;;;;0.75;0.75;;;;;19.91;48.26;101291.56;6025061;23;45320;-85
2022/06/26 08:15:50;;;;;;;;;2.00;1.00;;;;;19.94;49.02;101294.97;6013012;23;45267;-88
2022/06/26 08:18:18;;;;;;;;;1.00;1.00;;;;;19.92;48.86;101292.41;6060433;23;46344;-89
2022/06/26 08:20:46;;;;;;;;;1.00;1.00;;;;;19.99;49.04;101293.75;6061214;23;45652;-90
2022/06/26 08:23:37;;;;;;;;;1.00;1.00;;;;;20.09;48.41;101294.03;6044131;23;45407;-96
2022/06/26 08:26:14;;;;;;;;;1.50;1.00;;;;;20.14;46.16;101293.78;5956660;23;45565;-93
2022/06/26 08:29:05;;;;;;;;;1.25;1.25;;;;;20.13;46.04;101292.91;5951183;23;45717;-95
2022/06/26 08:33:00;;;;;;;;;1.25;1.25;;;;;20.12;45.87;101293.88;5926799;23;45589;-93
2022/06/26 08:35:20;;;;;;;;;1.00;0.50;;;;;20.22;45.67;101292.34;5943248;23;45476;-92
2022/06/26 08:37:55;;;;;;;;;1.00;1.00;;;;;20.26;44.73;101295.66;5949846;23;44839;-89
2022/06/26 08:40:21;;;;;;;;;0.75;0.75;;;;;20.30;44.78;101297.19;5949043;23;46696;-88
2022/06/26 08:42:49;;;;;;;;;0.00;0.00;;;;;20.38;46.57;101296.72;5928355;23;45311;-89
2022/06/26 08:45:18;;;;;;;;;1.00;1.00;;;;;20.56;46.11;101300.00;5950332;23;45319;-85
2022/06/26 08:47:43;;;;;;;;;2.00;1.00;;;;;20.64;45.89;101295.97;5930710;23;45675;-90
2022/06/26 08:50:21;;;;;;;;;1.00;1.00;;;;;20.77;46.22;101295.22;5953904;23;46179;-94
2022/06/26 08:53:20;;;;;;;;;;;;;;;;;;;;;
2022/06/26 13:13:48;;;;;;;;;0.00;0.00;;;;;45.70;12.16;101196.44;6067310;23;45784;-95
2022/06/26 13:16:22;;;;;;;;;0.00;0.00;;;;;46.68;9.50;101190.03;6076634;23;45618;-93
2022/06/26 13:28:12;;;;;;;;;0.25;0.00;;;;;44.31;11.93;101209.09;6185933;22;45229;-96
2022/06/26 13:31:19;;;;;;;;;0.00;0.00;;;;;46.38;12.03;101209.25;6223592;22;45279;-96
2022/06/26 13:34:02;;;;;;;;;;;;;;;;;;;;;
2022/06/26 13:36:28;;;;;;;;;1.00;0.00;;;;;46.51;9.88;101204.09;6209272;22;69312;-84
2022/06/26 13:38:53;;;;;;;;;0.25;0.00;;;;;46.45;10.70;101204.31;6183576;22;45472;-85
2022/06/26 13:41:28;;;;;;;;;;;;;;;;;;;;;
2022/06/26 13:44:07;;;;;;;;;0.00;0.00;;;;;45.13;9.42;101195.25;6183495;22;70062;-88
2022/06/26 13:46:38;;;;;;;;;0.00;0.00;;;;;44.85;10.38;101191.75;6185346;22;45662;-88
2022/06/26 13:49:10;;;;;;;;;0.50;0.00;;;;;45.47;10.46;101189.41;6208295;22;60062;-87
2022/06/26 13:51:44;;;;;;;;;3.25;0.50;;;;;45.51;10.56;101188.63;6209015;22;45600;-88
2022/06/26 13:54:09;;;;;;;;;0.00;0.00;;;;;45.31;11.82;101194.84;6182401;22;48596;-87
2022/06/26 13:56:58;;;;;;;;;0.00;0.00;;;;;43.94;11.00;101189.75;6209376;22;45248;-90
2022/06/26 13:59:22;;;;;;;;;0.00;0.00;;;;;42.92;12.15;101188.03;6188544;22;45940;-88
2022/06/26 14:02:01;;;;;;;;;1.00;1.00;;;;;42.50;12.05;101180.22;6184685;22;45424;-89
2022/06/26 14:04:26;;;;;;;;;1.00;1.00;;;;;39.76;13.21;101184.03;6237387;22;45323;-88
2022/06/26 14:06:57;;;;;;;;;1.00;0.00;;;;;37.60;16.82;101173.13;6336676;22;45331;-90
2022/06/26 14:09:40;;;;;;;;;1.00;1.00;;;;;36.48;17.86;101174.75;6339030;22;45372;-89
2022/06/26 14:12:08;;;;;;;;;1.25;0.00;;;;;36.14;17.10;101176.53;6337732;22;45280;-90
2022/06/26 14:15:29;;;;;;;;;1.25;0.75;;;;;36.00;17.44;101170.22;6316316;22;45376;-92
2022/06/26 14:18:00;;;;;;;;;2.25;0.50;;;;;35.53;18.37;101161.00;6183341;22;45158;-86
2022/06/26 14:20:34;;;;;;;;;0.25;0.00;;;;;34.96;19.59;101152.88;6210420;22;63517;-92
2022/06/26 14:33:01;;;;;;;;;3.25;0.00;;;;;29.83;23.79;101151.72;6062441;23;46449;-90
2022/06/26 14:35:26;;;;;;;;;2.00;0.00;;;;;29.31;26.86;101147.22;6098521;23;45338;-86
2022/06/26 14:41:10;;;;;;;;;0.50;0.25;;;;;28.47;25.23;101143.06;6100036;23;45459;-90
2022/06/26 14:44:00;;;;;;;;;0.25;0.00;;;;;28.17;25.59;101145.09;6100265;23;45693;-92
2022/06/26 14:46:45;;;;;;;;;0.25;0.25;;;;;28.06;25.84;101143.44;6120857;23;45287;-92
2022/06/26 14:52:53;;;;;;;;;;;;;;;;;;;;;
2022/06/26 14:55:49;;;;;;;;;;;;;;;;;;;;;
2022/06/26 14:58:26;;;;;;;;;1.00;1.00;;;;;27.75;28.42;101138.38;6117326;23;72810;-91
2022/06/26 15:01:05;;;;;;;;;;;;;;;;;;;;;
2022/06/26 15:03:53;;;;;;;;;3.00;2.00;;;;;28.13;29.92;101128.47;6162844;22;70075;-90
2022/06/26 15:06:36;;;;;;;;;2.25;1.75;;;;;28.33;28.13;101126.53;6191778;22;48294;-91
2022/06/26 15:09:06;;;;;;;;;2.25;1.25;;;;;28.38;27.90;101129.59;6217468;22;45350;-91
2022/06/26 15:11:31;;;;;;;;;2.75;1.00;;;;;28.34;29.95;101133.59;6216337;22;45240;-91
2022/06/26 15:14:18;;;;;;;;;3.00;2.00;;;;;28.27;29.71;101121.78;6216197;22;45382;-92
2022/06/26 15:17:20;;;;;;;;;2.25;2.00;;;;;27.95;27.41;101115.09;6220642;22;47073;-95
2022/06/26 15:19:45;;;;;;;;;3.50;1.25;;;;;27.73;28.86;101124.28;6095795;23;45250;-93
2022/06/26 15:22:27;;;;;;;;;1.00;1.00;;;;;27.63;29.79;101112.78;6120008;23;45573;-93
2022/06/26 15:24:53;;;;;;;;;2.75;1.00;;;;;27.45;32.04;101118.06;6107582;23;45423;-93
2022/06/26 15:27:21;;;;;;;;;2.50;1.00;;;;;27.23;29.40;101122.72;6120865;23;47182;-94
2022/06/26 15:29:47;;;;;;;;;3.00;1.00;;;;;27.02;29.53;101120.25;6134776;23;45625;-90
2022/06/26 15:32:13;;;;;;;;;3.00;1.00;;;;;26.77;30.79;101126.97;6156641;23;45472;-90
2022/06/26 15:34:42;;;;;;;;;3.75;1.75;;;;;26.48;30.34;101121.59;6156364;23;45611;-91
2022/06/26 15:37:10;;;;;;;;;0.75;0.75;;;;;26.32;31.31;101122.16;6128565;23;47171;-91
2022/06/26 15:39:36;;;;;;;;;2.00;1.75;;;;;26.12;29.89;101125.75;6156320;23;45595;-89
2022/06/26 15:42:25;;;;;;;;;2.25;2.25;;;;;25.81;30.30;101121.25;6156144;23;45559;-92
2022/06/26 15:45:03;;;;;;;;;3.00;2.00;;;;;25.59;32.79;101118.75;6146982;23;45383;-91
2022/06/26 15:47:59;;;;;;;;;4.25;1.00;;;;;25.50;32.45;101110.59;6155728;23;47200;-96
2022/06/26 15:51:51;;;;;;;;;;;;;;;;;;;;;
2022/06/26 15:55:26;;;;;;;;;1.75;1.00;;;;;25.31;31.47;101115.81;6130125;23;45412;-94
2022/06/26 16:00:51;;;;;;;;;3.25;1.50;;;;;25.08;32.87;101099.94;6091007;23;46134;-89
2022/06/26 16:03:19;;;;;;;;;2.75;1.75;;;;;25.09;33.59;101096.31;6066932;23;45311;-89
2022/06/26 16:05:44;;;;;;;;;2.75;2.75;;;;;25.04;34.24;101098.50;6065737;23;65617;-89
2022/06/26 16:08:16;;;;;;;;;1.00;1.00;;;;;25.09;33.69;101098.09;6066630;23;45297;-89
2022/06/26 16:10:41;;;;;;;;;3.75;2.00;;;;;25.19;34.01;101106.19;6042236;23;46965;-88
2022/06/26 16:13:07;;;;;;;;;1.00;1.00;;;;;25.25;33.08;101103.03;6065872;23;45332;-88
2022/06/26 16:15:32;;;;;;;;;4.00;2.25;;;;;25.24;32.90;101103.97;6066541;23;45301;-87
2022/06/26 16:21:37;;;;;;;;;2.25;2.00;;;;;24.99;32.78;101111.38;5996597;23;45599;-92
2022/06/26 16:30:33;;;;;;;;;1.50;1.50;;;;;24.64;33.39;101114.31;5947009;23;46375;-92
2022/06/26 16:32:58;;;;;;;;;3.00;3.00;;;;;24.42;34.00;101112.53;5927139;23;45490;-91
2022/06/26 16:35:37;;;;;;;;;2.50;1.25;;;;;24.27;34.03;101102.16;5923301;23;45425;-93
2022/06/26 16:38:19;;;;;;;;;2.00;2.00;;;;;24.13;34.14;101099.78;6044253;23;45230;-92
2022/06/26 16:40:54;;;;;;;;;1.50;1.50;;;;;23.95;34.55;101092.31;6039370;23;45441;-92
2022/06/26 16:43:56;;;;;;;;;2.00;2.00;;;;;23.98;34.88;101098.34;6037798;23;47042;-94
2022/06/26 16:46:21;;;;;;;;;3.25;2.00;;;;;23.94;36.22;101092.41;6037601;23;45387;-93
2022/06/26 16:48:47;;;;;;;;;7.50;2.00;;;;;23.93;35.65;101091.59;6013245;23;45395;-91
2022/06/26 16:51:22;;;;;;;;;2.00;2.00;;;;;23.90;36.60;101093.63;6039031;23;45374;-92
2022/06/26 16:54:12;;;;;;;;;3.00;1.00;;;;;23.92;35.82;101099.69;6062083;23;46432;-96
2022/06/26 17:05:23;;;;;;;;;4.00;1.00;;;;;24.13;35.24;101086.50;6156881;22;45975;-93
2022/06/26 17:07:49;;;;;;;;;0.75;0.75;;;;;24.15;36.00;101092.53;6179678;23;45318;-93
2022/06/26 17:13:09;;;;;;;;;1.75;1.75;;;;;24.27;35.18;101085.38;6160161;23;45593;-93
2022/06/26 17:16:25;;;;;;;;;3.00;1.00;;;;;24.21;35.60;101078.72;6155136;23;45521;-96
2022/06/26 17:19:13;;;;;;;;;3.25;1.75;;;;;24.02;35.34;101086.53;6154083;23;45265;-96
2022/06/26 17:21:57;;;;;;;;;1.75;1.75;;;;;23.89;35.47;101108.75;6145374;23;45426;-95
2022/06/26 17:25:14;;;;;;;;;5.00;2.00;;;;;23.74;36.15;101101.97;6150400;23;45277;-93
2022/06/26 17:27:41;;;;;;;;;1.25;1.00;;;;;23.62;36.28;101097.59;6061712;23;47077;-92
2022/06/26 17:30:08;;;;;;;;;2.00;1.00;;;;;23.52;36.90;101097.50;6037057;23;45352;-91
2022/06/26 17:32:34;;;;;;;;;2.50;0.75;;;;;23.50;36.57;101091.44;6037989;23;45405;-89
2022/06/26 17:34:59;;;;;;;;;2.00;2.00;;;;;23.54;36.82;101084.94;6015155;23;45510;-91
2022/06/26 17:37:25;;;;;;;;;4.00;2.00;;;;;23.55;36.69;101082.16;6038536;23;46076;-91
2022/06/26 17:40:00;;;;;;;;;2.00;2.00;;;;;23.59;36.37;101093.38;6015713;23;45299;-94
2022/06/26 17:42:53;;;;;;;;;1.75;1.75;;;;;23.55;36.38;101097.22;6085603;23;45313;-96
2022/06/26 17:45:18;;;;;;;;;1.50;1.50;;;;;23.50;37.57;101104.75;6096504;23;45344;-91
2022/06/26 17:47:47;;;;;;;;;3.00;3.00;;;;;23.43;36.95;101091.06;6121155;23;51122;-87
2022/06/26 17:50:15;;;;;;;;;3.00;2.25;;;;;23.40;37.23;101091.31;6127989;23;45326;-89
2022/06/26 17:52:43;;;;;;;;;1.75;1.75;;;;;23.30;37.13;101095.66;6156002;23;45372;-89
2022/06/26 17:55:09;;;;;;;;;3.50;2.25;;;;;23.21;38.24;101093.69;6155852;23;45352;-89
2022/06/26 17:57:34;;;;;;;;;1.25;1.25;;;;;23.11;37.94;101104.19;6155320;23;47652;-89
2022/06/26 18:00:00;;;;;;;;;2.75;2.75;;;;;23.00;37.74;101108.44;6155853;23;45354;-87
2022/06/26 18:02:25;;;;;;;;;2.75;2.00;;;;;22.96;39.23;101111.47;6155135;23;45346;-88
2022/06/26 18:04:53;;;;;;;;;1.00;1.00;;;;;22.87;37.86;101113.00;6255428;22;45429;-87
2022/06/26 18:07:18;;;;;;;;;1.00;1.00;;;;;22.83;38.13;101116.84;6284480;22;46764;-90
2022/06/26 18:09:43;;;;;;;;;3.00;2.00;;;;;22.76;38.42;101110.31;6337567;22;45293;-89
2022/06/26 18:12:10;;;;;;;;;3.25;2.00;;;;;22.72;38.80;101112.34;6310120;22;45250;-85
2022/06/26 18:14:45;;;;;;;;;1.25;1.00;;;;;22.67;38.58;101116.28;6309940;22;45444;-90
2022/06/26 18:17:16;;;;;;;;;3.75;2.00;;;;;22.59;39.13;101112.41;6337894;22;45346;-89
2022/06/26 18:19:49;;;;;;;;;2.50;0.50;;;;;22.50;39.43;101121.03;6284593;22;45305;-91
2022/06/26 18:22:14;;;;;;;;;2.00;2.00;;;;;22.46;39.07;101113.44;6311002;22;45225;-90
2022/06/26 18:24:42;;;;;;;;;4.50;3.00;;;;;22.35;39.30;101109.72;6284024;22;45428;-90